Time;durP1;ratioP1;P1;durP2;ratioP2;P2;SDS_P1;SDS_P2;PMS_P1;PMS_P2;Temp;Humidity;BMP_temperature;BMP_pressure;BME280_temperature;BME280_humidity;BME280_pressure;Samples;Min_cycle;Max_cycle;Signal;HPM_P1;HPM_P2
2023/03/29 00:01:29;;;;;;;5.65;2.58;;;;;;;;;;4896324;29;20462;-75
2023/03/29 00:03:56;;;;;;;8.30;2.80;;;;;;;;;;4892337;29;20080;-75
2023/03/29 00:06:22;;;;;;;3.72;2.30;;;;;;;;;;4904356;29;20025;-75
2023/03/29 00:08:55;;;;;;;5.50;2.50;;;;;;;;;;4890622;29;20033;-75
2023/03/29 00:11:22;;;;;;;5.10;2.30;;;;;;;;;;4894817;29;20458;-76
2023/03/29 00:13:50;;;;;;;7.53;3.00;;;;;;;;;;4910769;29;20051;-75
2023/03/29 00:16:16;;;;;;;4.45;2.20;;;;;;;;;;4919589;29;20027;-75
2023/03/29 00:18:43;;;;;;;2.88;2.47;;;;;;;;;;4897876;29;20021;-75
2023/03/29 00:21:09;;;;;;;4.72;2.20;;;;;;;;;;4918440;29;20273;-76
2023/03/29 00:23:35;;;;;;;4.80;2.08;;;;;;;;;;4894369;29;20032;-74
2023/03/29 00:26:01;;;;;;;7.28;2.70;;;;;;;;;;4894083;29;20120;-75
2023/03/29 00:28:27;;;;;;;6.45;2.50;;;;;;;;;;4895051;29;20025;-75
2023/03/29 00:30:54;;;;;;;8.07;3.13;;;;;;;;;;4894427;29;20017;-75
2023/03/29 00:33:21;;;;;;;3.38;2.42;;;;;;;;;;4894517;29;20040;-75
2023/03/29 00:35:48;;;;;;;3.28;2.20;;;;;;;;;;4910087;29;20032;-75
2023/03/29 00:38:15;;;;;;;3.78;1.90;;;;;;;;;;4895699;29;20025;-75
2023/03/29 00:40:45;;;;;;;5.88;2.53;;;;;;;;;;4892571;29;20506;-75
2023/03/29 00:43:12;;;;;;;6.35;2.17;;;;;;;;;;4883415;29;20040;-76
2023/03/29 00:45:39;;;;;;;3.08;2.10;;;;;;;;;;4891164;29;20032;-75
2023/03/29 00:48:07;;;;;;;4.90;2.17;;;;;;;;;;4896749;29;20033;-75
2023/03/29 00:50:33;;;;;;;6.18;2.67;;;;;;;;;;4894212;29;20061;-74
2023/03/29 00:53:02;;;;;;;7.25;2.30;;;;;;;;;;4917684;29;20032;-75
2023/03/29 00:55:31;;;;;;;6.65;2.75;;;;;;;;;;4925428;29;20944;-75
2023/03/29 00:57:57;;;;;;;4.88;2.42;;;;;;;;;;4889678;29;20029;-75
2023/03/29 01:00:27;;;;;;;6.80;2.90;;;;;;;;;;4916320;29;20035;-75
2023/03/29 01:02:58;;;;;;;4.97;2.28;;;;;;;;;;4923464;29;20037;-75
2023/03/29 01:05:29;;;;;;;3.40;2.25;;;;;;;;;;4905131;29;20025;-76
2023/03/29 01:08:02;;;;;;;5.88;2.35;;;;;;;;;;4892007;29;20068;-76
2023/03/29 01:10:28;;;;;;;5.53;2.20;;;;;;;;;;4894021;29;20465;-75
2023/03/29 01:12:57;;;;;;;8.95;2.30;;;;;;;;;;4891169;29;20422;-75
2023/03/29 01:15:26;;;;;;;6.18;2.28;;;;;;;;;;4918663;29;20390;-75
2023/03/29 01:17:54;;;;;;;6.22;2.65;;;;;;;;;;4890889;29;20377;-75
2023/03/29 01:20:22;;;;;;;2.15;1.80;;;;;;;;;;4895435;29;20028;-75
2023/03/29 01:22:50;;;;;;;5.45;2.50;;;;;;;;;;4893181;29;20032;-75
2023/03/29 01:25:42;;;;;;;5.70;2.28;;;;;;;;;;4893886;29;20576;-74
2023/03/29 01:28:11;;;;;;;10.00;3.58;;;;;;;;;;4885955;29;20067;-76
2023/03/29 01:30:39;;;;;;;3.80;2.60;;;;;;;;;;4893057;29;20366;-74
2023/03/29 01:33:10;;;;;;;7.43;2.45;;;;;;;;;;4903078;29;20040;-75
2023/03/29 01:35:43;;;;;;;5.95;2.63;;;;;;;;;;4895297;29;20039;-74
2023/03/29 01:38:12;;;;;;;2.75;2.20;;;;;;;;;;4890574;29;20035;-75
2023/03/29 01:40:38;;;;;;;6.60;3.13;;;;;;;;;;4889905;29;20037;-76
2023/03/29 01:43:25;;;;;;;4.20;2.55;;;;;;;;;;4890860;29;20044;-76
2023/03/29 01:46:02;;;;;;;9.88;3.75;;;;;;;;;;4913594;29;20028;-75
2023/03/29 01:48:44;;;;;;;5.63;2.97;;;;;;;;;;4890360;29;20528;-74
2023/03/29 01:51:16;;;;;;;3.65;2.30;;;;;;;;;;4894224;29;20024;-75
2023/03/29 01:53:46;;;;;;;4.70;2.05;;;;;;;;;;4892937;29;20029;-75
2023/03/29 01:56:16;;;;;;;5.90;2.53;;;;;;;;;;4890797;29;20020;-75
2023/03/29 01:58:44;;;;;;;5.00;2.70;;;;;;;;;;4889773;29;20115;-75
2023/03/29 02:01:12;;;;;;;6.22;2.92;;;;;;;;;;4892651;29;20028;-76
2023/03/29 02:03:43;;;;;;;3.83;2.38;;;;;;;;;;4884129;29;20673;-75
2023/03/29 02:06:12;;;;;;;5.22;2.80;;;;;;;;;;4909613;29;20365;-76
2023/03/29 02:08:39;;;;;;;2.00;1.73;;;;;;;;;;4893831;29;20033;-75
2023/03/29 02:11:06;;;;;;;3.50;2.30;;;;;;;;;;4924143;29;20033;-76
2023/03/29 02:13:33;;;;;;;3.72;2.60;;;;;;;;;;4911168;29;20040;-75
2023/03/29 02:16:01;;;;;;;8.30;2.72;;;;;;;;;;4918765;29;20024;-75
2023/03/29 02:18:28;;;;;;;5.70;2.28;;;;;;;;;;4893060;29;20442;-75
2023/03/29 02:20:57;;;;;;;8.52;3.30;;;;;;;;;;4925997;29;20646;-75
2023/03/29 02:23:27;;;;;;;8.32;2.78;;;;;;;;;;4883205;29;20032;-74
2023/03/29 02:25:55;;;;;;;4.18;2.75;;;;;;;;;;4895496;29;20103;-74
2023/03/29 02:28:22;;;;;;;14.65;3.38;;;;;;;;;;4892794;29;20033;-74
2023/03/29 02:30:48;;;;;;;4.90;2.55;;;;;;;;;;4892256;29;20032;-74
2023/03/29 02:33:18;;;;;;;5.25;3.00;;;;;;;;;;4894482;29;20037;-74
2023/03/29 02:36:07;;;;;;;8.52;3.60;;;;;;;;;;4888120;29;20037;-74
2023/03/29 02:38:33;;;;;;;7.43;3.00;;;;;;;;;;4889925;29;20470;-74
2023/03/29 02:41:00;;;;;;;11.35;4.28;;;;;;;;;;4904974;29;20084;-75
2023/03/29 02:43:27;;;;;;;7.95;3.67;;;;;;;;;;4893029;29;20092;-75
2023/03/29 02:45:54;;;;;;;4.22;3.20;;;;;;;;;;4889873;29;20481;-75
2023/03/29 02:48:21;;;;;;;5.53;3.33;;;;;;;;;;4892011;29;20147;-74
2023/03/29 02:50:49;;;;;;;7.18;3.33;;;;;;;;;;4907613;29;20021;-75
2023/03/29 02:53:17;;;;;;;7.25;3.30;;;;;;;;;;4897925;29;20440;-74
2023/03/29 02:55:45;;;;;;;7.80;4.68;;;;;;;;;;4893524;29;20036;-75
2023/03/29 02:58:12;;;;;;;5.95;3.38;;;;;;;;;;4896509;29;20031;-75
2023/03/29 03:00:41;;;;;;;5.60;3.70;;;;;;;;;;4896544;29;20123;-74
2023/03/29 03:03:08;;;;;;;4.97;3.95;;;;;;;;;;4889668;29;20025;-75
2023/03/29 03:05:34;;;;;;;11.27;3.97;;;;;;;;;;4908447;29;20119;-73
2023/03/29 03:08:01;;;;;;;10.05;4.43;;;;;;;;;;4928612;29;20029;-74
2023/03/29 03:10:27;;;;;;;7.60;4.15;;;;;;;;;;4895062;29;20103;-76
2023/03/29 03:12:54;;;;;;;6.25;3.75;;;;;;;;;;4908513;29;20047;-73
2023/03/29 03:15:20;;;;;;;5.30;3.78;;;;;;;;;;4898921;29;20020;-74
2023/03/29 03:17:48;;;;;;;9.13;3.85;;;;;;;;;;4894923;29;20032;-73
2023/03/29 03:20:14;;;;;;;6.60;3.63;;;;;;;;;;4896898;29;20021;-74
2023/03/29 03:22:44;;;;;;;7.78;4.00;;;;;;;;;;4895741;29;20374;-74
2023/03/29 03:25:10;;;;;;;7.25;3.53;;;;;;;;;;4896680;29;20048;-75
2023/03/29 03:27:38;;;;;;;9.68;3.60;;;;;;;;;;4895359;29;20044;-73
2023/03/29 03:30:05;;;;;;;7.40;3.58;;;;;;;;;;4896990;29;20036;-74
2023/03/29 03:32:33;;;;;;;6.57;3.42;;;;;;;;;;4907009;29;20025;-73
2023/03/29 03:34:59;;;;;;;7.80;3.63;;;;;;;;;;4908083;29;20045;-74
2023/03/29 03:37:26;;;;;;;5.95;3.15;;;;;;;;;;4909653;29;20029;-73
2023/03/29 03:39:52;;;;;;;6.03;3.83;;;;;;;;;;4926091;29;20100;-73
2023/03/29 03:42:18;;;;;;;5.43;3.15;;;;;;;;;;4909564;29;20347;-76
2023/03/29 03:44:45;;;;;;;4.60;3.95;;;;;;;;;;4896284;29;20029;-74
2023/03/29 03:47:13;;;;;;;7.07;3.58;;;;;;;;;;4891062;29;20028;-73
2023/03/29 03:49:39;;;;;;;12.77;4.38;;;;;;;;;;4896099;29;20020;-73
2023/03/29 03:52:06;;;;;;;6.68;3.13;;;;;;;;;;4890348;29;20407;-75
2023/03/29 03:54:32;;;;;;;8.02;3.95;;;;;;;;;;4911400;29;20036;-75
2023/03/29 03:56:58;;;;;;;6.30;4.05;;;;;;;;;;4883962;29;20052;-74
2023/03/29 03:59:25;;;;;;;11.02;5.00;;;;;;;;;;4902544;29;20032;-74
2023/03/29 04:01:51;;;;;;;25.38;11.05;;;;;;;;;;4907748;29;20028;-74
2023/03/29 04:04:18;;;;;;;6.78;4.20;;;;;;;;;;4906039;29;20052;-73
2023/03/29 04:06:44;;;;;;;9.27;4.38;;;;;;;;;;4925666;29;20036;-74
2023/03/29 04:09:11;;;;;;;8.52;3.22;;;;;;;;;;4887629;29;20101;-75
2023/03/29 04:11:38;;;;;;;5.03;3.58;;;;;;;;;;4902427;29;20484;-73
2023/03/29 04:14:04;;;;;;;8.63;3.97;;;;;;;;;;4896289;29;20032;-73
2023/03/29 04:16:30;;;;;;;7.50;4.07;;;;;;;;;;4900456;29;20020;-76
2023/03/29 04:18:56;;;;;;;7.15;3.97;;;;;;;;;;4904230;29;20028;-74
2023/03/29 04:21:22;;;;;;;6.10;3.90;;;;;;;;;;4891288;29;20021;-73
2023/03/29 04:23:48;;;;;;;8.50;4.10;;;;;;;;;;4906379;29;20036;-74
2023/03/29 04:26:16;;;;;;;10.18;3.20;;;;;;;;;;4920961;29;20044;-74
2023/03/29 04:28:44;;;;;;;7.97;3.78;;;;;;;;;;4887810;29;20021;-73
2023/03/29 04:31:11;;;;;;;8.85;4.15;;;;;;;;;;4888296;29;20025;-73
2023/03/29 04:33:37;;;;;;;7.47;3.80;;;;;;;;;;4893536;29;20036;-73
2023/03/29 04:36:04;;;;;;;6.15;3.83;;;;;;;;;;4894398;29;20127;-74
2023/03/29 04:38:30;;;;;;;6.28;4.57;;;;;;;;;;4910461;29;20032;-73
2023/03/29 04:40:57;;;;;;;6.85;4.43;;;;;;;;;;4886348;29;20049;-73
2023/03/29 04:43:23;;;;;;;7.45;3.67;;;;;;;;;;4889738;29;20481;-72
2023/03/29 04:45:49;;;;;;;9.27;3.70;;;;;;;;;;4895626;29;20033;-72
2023/03/29 04:48:15;;;;;;;9.05;4.47;;;;;;;;;;4889717;29;20100;-71
2023/03/29 04:50:41;;;;;;;8.52;3.55;;;;;;;;;;4885787;29;20053;-72
2023/03/29 04:53:07;;;;;;;11.48;3.92;;;;;;;;;;4921948;29;20033;-73
2023/03/29 04:55:33;;;;;;;9.27;4.03;;;;;;;;;;4905067;29;20474;-73
2023/03/29 04:58:00;;;;;;;7.28;3.90;;;;;;;;;;4886220;29;20037;-73
2023/03/29 05:00:26;;;;;;;11.70;5.03;;;;;;;;;;4883721;29;20088;-73
2023/03/29 05:02:53;;;;;;;6.40;3.88;;;;;;;;;;4893733;29;20021;-72
2023/03/29 05:05:21;;;;;;;8.73;4.70;;;;;;;;;;4900479;29;20035;-73
2023/03/29 05:07:47;;;;;;;14.05;4.88;;;;;;;;;;4893416;29;20032;-75
2023/03/29 05:10:13;;;;;;;11.18;5.00;;;;;;;;;;4893277;29;20107;-75
2023/03/29 05:12:39;;;;;;;10.05;4.75;;;;;;;;;;4892835;29;20427;-73
2023/03/29 05:15:07;;;;;;;8.07;4.60;;;;;;;;;;4912990;29;20070;-75
2023/03/29 05:17:33;;;;;;;12.00;5.70;;;;;;;;;;4926567;29;20024;-75
2023/03/29 05:20:00;;;;;;;12.05;6.07;;;;;;;;;;4909821;29;20083;-74
2023/03/29 05:22:27;;;;;;;12.50;5.18;;;;;;;;;;4885973;29;20123;-73
2023/03/29 05:24:53;;;;;;;8.00;6.03;;;;;;;;;;4900988;29;20032;-73
2023/03/29 05:27:21;;;;;;;23.33;11.15;;;;;;;;;;4893575;29;20072;-75
2023/03/29 05:29:47;;;;;;;8.65;5.05;;;;;;;;;;4916196;29;20029;-74
2023/03/29 05:32:14;;;;;;;9.32;5.60;;;;;;;;;;4892304;29;20474;-73
2023/03/29 05:34:40;;;;;;;12.05;5.55;;;;;;;;;;4887746;29;20063;-73
2023/03/29 05:37:06;;;;;;;10.80;5.70;;;;;;;;;;4892670;29;20109;-73
2023/03/29 05:39:33;;;;;;;11.57;5.15;;;;;;;;;;4899851;29;20649;-73
2023/03/29 05:41:59;;;;;;;8.43;5.88;;;;;;;;;;4924594;29;20024;-73
2023/03/29 05:44:25;;;;;;;10.00;5.88;;;;;;;;;;4924801;29;20544;-73
2023/03/29 05:46:51;;;;;;;9.88;5.88;;;;;;;;;;4894959;29;20029;-73
2023/03/29 05:49:18;;;;;;;7.40;5.53;;;;;;;;;;4907036;29;20025;-72
2023/03/29 05:51:44;;;;;;;14.88;7.03;;;;;;;;;;4921765;29;20036;-73
2023/03/29 05:54:11;;;;;;;10.50;6.47;;;;;;;;;;4879614;29;20026;-73
2023/03/29 05:56:37;;;;;;;15.07;7.47;;;;;;;;;;4902981;29;20051;-73
2023/03/29 05:59:03;;;;;;;11.80;6.88;;;;;;;;;;4909875;29;20370;-73
2023/03/29 06:01:29;;;;;;;10.25;5.93;;;;;;;;;;4894862;29;20032;-73
2023/03/29 06:03:56;;;;;;;11.27;7.53;;;;;;;;;;4885860;29;20131;-73
2023/03/29 06:06:22;;;;;;;12.25;7.75;;;;;;;;;;4895072;29;20031;-76
2023/03/29 06:08:49;;;;;;;12.85;6.85;;;;;;;;;;4893407;29;20029;-73
2023/03/29 06:11:16;;;;;;;11.98;7.68;;;;;;;;;;4893996;29;20035;-73
2023/03/29 06:13:42;;;;;;;11.73;6.20;;;;;;;;;;4894714;29;20032;-73
2023/03/29 06:16:09;;;;;;;15.20;6.55;;;;;;;;;;4907903;29;20104;-74
2023/03/29 06:18:36;;;;;;;13.55;7.38;;;;;;;;;;4894480;29;20097;-73
2023/03/29 06:21:03;;;;;;;10.98;6.65;;;;;;;;;;4910317;29;20025;-73
2023/03/29 06:23:29;;;;;;;10.40;6.32;;;;;;;;;;4894022;29;20036;-73
2023/03/29 06:25:55;;;;;;;13.70;6.15;;;;;;;;;;4893812;29;20056;-74
2023/03/29 06:28:23;;;;;;;9.15;5.93;;;;;;;;;;4898596;29;20016;-73
2023/03/29 06:30:49;;;;;;;10.43;6.28;;;;;;;;;;4897405;29;20044;-73
2023/03/29 06:33:19;;;;;;;14.07;6.03;;;;;;;;;;4898207;29;20159;-74
2023/03/29 06:35:49;;;;;;;10.23;6.05;;;;;;;;;;4913680;29;20032;-73
2023/03/29 06:38:15;;;;;;;10.43;6.45;;;;;;;;;;4896173;29;20025;-74
2023/03/29 06:40:43;;;;;;;10.50;6.22;;;;;;;;;;4913966;29;20051;-74
2023/03/29 06:43:09;;;;;;;10.55;5.93;;;;;;;;;;4898900;29;20054;-74
2023/03/29 06:45:36;;;;;;;7.57;5.50;;;;;;;;;;4898210;29;20027;-75
2023/03/29 06:48:03;;;;;;;8.13;6.10;;;;;;;;;;4890491;29;20037;-75
2023/03/29 06:50:29;;;;;;;12.75;5.90;;;;;;;;;;4876634;29;20033;-73
2023/03/29 06:52:56;;;;;;;12.25;7.68;;;;;;;;;;4895701;29;20029;-74
2023/03/29 06:55:23;;;;;;;11.75;7.00;;;;;;;;;;4886776;29;20164;-73
2023/03/29 06:57:49;;;;;;;15.82;6.65;;;;;;;;;;4912060;29;20056;-74
2023/03/29 07:00:26;;;;;;;13.73;6.55;;;;;;;;;;4897266;29;20116;-73
2023/03/29 07:02:53;;;;;;;12.77;6.35;;;;;;;;;;4886020;29;20029;-74
2023/03/29 07:05:19;;;;;;;11.27;5.40;;;;;;;;;;4896674;29;20048;-75
2023/03/29 07:07:54;;;;;;;13.00;6.22;;;;;;;;;;4896926;29;20089;-74
2023/03/29 07:10:33;;;;;;;11.57;6.20;;;;;;;;;;4896492;29;20111;-74
2023/03/29 07:12:59;;;;;;;9.60;5.88;;;;;;;;;;4897042;29;20032;-74
2023/03/29 07:15:26;;;;;;;11.52;6.35;;;;;;;;;;4913283;29;20659;-76
2023/03/29 07:17:53;;;;;;;10.82;6.13;;;;;;;;;;4892769;29;20029;-75
2023/03/29 07:20:21;;;;;;;9.95;6.53;;;;;;;;;;4907260;29;20520;-76
2023/03/29 07:23:15;;;;;;;13.90;6.13;;;;;;;;;;4897722;29;20025;-75
2023/03/29 07:25:41;;;;;;;9.75;6.88;;;;;;;;;;4887036;29;20067;-74
2023/03/29 07:28:07;;;;;;;28.50;12.77;;;;;;;;;;4892227;29;20032;-75
2023/03/29 07:30:34;;;;;;;26.05;13.23;;;;;;;;;;4909045;29;20024;-75
2023/03/29 07:33:00;;;;;;;13.55;7.00;;;;;;;;;;4886964;29;20077;-74
2023/03/29 07:35:37;;;;;;;12.07;6.78;;;;;;;;;;4879161;29;20025;-76
2023/03/29 07:38:04;;;;;;;14.70;6.57;;;;;;;;;;4884220;29;20024;-77
2023/03/29 07:40:30;;;;;;;13.13;6.88;;;;;;;;;;4897953;29;20027;-75
2023/03/29 07:42:57;;;;;;;13.35;6.57;;;;;;;;;;4892114;29;20045;-76
2023/03/29 07:45:24;;;;;;;13.63;6.82;;;;;;;;;;4889330;29;20035;-76
2023/03/29 07:47:55;;;;;;;12.00;5.90;;;;;;;;;;4891285;29;20024;-75
2023/03/29 07:50:21;;;;;;;14.10;6.13;;;;;;;;;;4886646;29;20036;-74
2023/03/29 07:52:49;;;;;;;13.40;6.88;;;;;;;;;;4891145;29;20041;-74
2023/03/29 07:55:15;;;;;;;9.32;5.28;;;;;;;;;;4887163;29;20442;-75
2023/03/29 07:57:43;;;;;;;11.90;6.18;;;;;;;;;;4883946;29;20462;-74
2023/03/29 08:00:18;;;;;;;14.73;6.55;;;;;;;;;;4886545;29;20041;-75
2023/03/29 08:02:49;;;;;;;10.50;6.28;;;;;;;;;;4887273;29;20374;-75
2023/03/29 08:05:16;;;;;;;68.03;36.58;;;;;;;;;;4907864;29;20121;-74
2023/03/29 08:07:43;;;;;;;90.15;47.65;;;;;;;;;;4911779;29;20044;-73
2023/03/29 08:10:19;;;;;;;12.68;7.75;;;;;;;;;;4910929;29;20459;-72
2023/03/29 08:12:46;;;;;;;13.98;7.45;;;;;;;;;;4888261;29;20036;-72
2023/03/29 08:15:12;;;;;;;13.38;7.07;;;;;;;;;;4888517;29;20028;-72
2023/03/29 08:17:38;;;;;;;12.65;7.63;;;;;;;;;;4879691;29;20378;-72
2023/03/29 08:20:05;;;;;;;18.80;7.90;;;;;;;;;;4898363;29;20024;-76
2023/03/29 08:22:32;;;;;;;17.83;8.57;;;;;;;;;;4883045;29;20032;-74
2023/03/29 08:24:58;;;;;;;14.77;7.72;;;;;;;;;;4912917;29;20373;-75
2023/03/29 08:27:25;;;;;;;14.77;7.15;;;;;;;;;;4914438;29;20071;-74
2023/03/29 08:29:51;;;;;;;13.27;7.38;;;;;;;;;;4886477;29;20037;-74
2023/03/29 08:32:17;;;;;;;15.00;9.05;;;;;;;;;;4887022;29;20076;-74
2023/03/29 08:34:43;;;;;;;11.07;7.60;;;;;;;;;;4889129;29;20043;-74
2023/03/29 08:37:09;;;;;;;17.85;7.25;;;;;;;;;;4888660;29;20538;-74
2023/03/29 08:39:36;;;;;;;10.52;6.93;;;;;;;;;;4889262;29;20060;-73
2023/03/29 08:42:09;;;;;;;12.25;7.18;;;;;;;;;;4891172;29;20080;-72
2023/03/29 08:44:35;;;;;;;14.93;7.22;;;;;;;;;;4886149;29;20037;-71
2023/03/29 08:47:08;;;;;;;13.73;7.22;;;;;;;;;;4915623;29;20053;-73
2023/03/29 08:49:37;;;;;;;15.85;6.20;;;;;;;;;;4888585;29;20524;-71
2023/03/29 08:52:06;;;;;;;11.38;6.88;;;;;;;;;;4881620;29;20112;-73
2023/03/29 08:54:36;;;;;;;10.20;6.70;;;;;;;;;;4906327;29;20025;-72
2023/03/29 08:57:10;;;;;;;13.65;6.57;;;;;;;;;;4885480;29;20470;-73
2023/03/29 08:59:36;;;;;;;10.00;6.13;;;;;;;;;;4883774;29;20040;-73
2023/03/29 09:02:04;;;;;;;10.20;6.22;;;;;;;;;;4912440;29;20481;-72
2023/03/29 09:04:36;;;;;;;14.60;6.60;;;;;;;;;;4886597;29;20436;-76
2023/03/29 09:07:03;;;;;;;11.32;6.32;;;;;;;;;;4888433;29;20044;-77
2023/03/29 09:09:32;;;;;;;15.23;7.05;;;;;;;;;;4877092;29;20040;-71
2023/03/29 09:12:04;;;;;;;18.30;8.05;;;;;;;;;;4878300;29;20089;-74
2023/03/29 09:14:37;;;;;;;10.48;6.30;;;;;;;;;;4885092;29;20067;-73
2023/03/29 09:17:03;;;;;;;10.50;5.97;;;;;;;;;;4884068;29;20029;-74
2023/03/29 09:19:33;;;;;;;14.00;6.95;;;;;;;;;;4885172;29;20029;-73
2023/03/29 09:22:17;;;;;;;13.38;6.75;;;;;;;;;;4886022;29;20036;-72
2023/03/29 09:24:52;;;;;;;12.95;6.68;;;;;;;;;;4892196;29;20371;-74
2023/03/29 09:27:35;;;;;;;10.73;7.05;;;;;;;;;;4896135;29;20057;-71
2023/03/29 09:30:07;;;;;;;18.27;7.25;;;;;;;;;;4884860;29;20056;-73
2023/03/29 09:32:46;;;;;;;14.57;8.38;;;;;;;;;;4881457;29;20053;-72
2023/03/29 09:35:29;;;;;;;11.10;6.88;;;;;;;;;;4891794;29;20123;-74
2023/03/29 09:37:56;;;;;;;13.45;7.32;;;;;;;;;;4886551;29;20056;-73
2023/03/29 09:40:22;;;;;;;12.40;7.65;;;;;;;;;;4883579;29;20060;-75
2023/03/29 09:42:52;;;;;;;22.58;7.80;;;;;;;;;;4903131;29;20024;-73
2023/03/29 09:45:18;;;;;;;14.43;7.63;;;;;;;;;;4909559;29;20080;-75
2023/03/29 09:47:50;;;;;;;17.75;7.15;;;;;;;;;;4884243;29;20029;-75
2023/03/29 09:50:19;;;;;;;50.92;23.23;;;;;;;;;;4886062;29;20076;-73
2023/03/29 09:52:45;;;;;;;26.80;12.90;;;;;;;;;;4892958;29;20028;-75
2023/03/29 09:55:15;;;;;;;12.90;7.68;;;;;;;;;;4880233;29;20032;-72
2023/03/29 09:57:42;;;;;;;14.85;7.97;;;;;;;;;;4888429;29;20390;-73
2023/03/29 10:00:09;;;;;;;15.88;8.40;;;;;;;;;;4886026;29;20024;-77
2023/03/29 10:02:35;;;;;;;21.52;9.15;;;;;;;;;;4914981;29;20282;-73
2023/03/29 10:05:03;;;;;;;15.60;9.13;;;;;;;;;;4893233;29;20033;-75
2023/03/29 10:07:43;;;;;;;20.15;9.38;;;;;;;;;;4887396;29;20040;-76
2023/03/29 10:10:10;;;;;;;18.95;9.85;;;;;;;;;;4886343;29;20031;-75
2023/03/29 10:12:36;;;;;;;16.75;9.40;;;;;;;;;;4881876;29;20601;-74
2023/03/29 10:15:04;;;;;;;23.27;9.60;;;;;;;;;;4884888;29;20386;-73
2023/03/29 10:17:37;;;;;;;20.63;10.48;;;;;;;;;;4887164;29;20024;-73
2023/03/29 10:20:06;;;;;;;19.55;9.77;;;;;;;;;;4911763;29;20034;-73
2023/03/29 10:22:36;;;;;;;20.10;11.45;;;;;;;;;;4886048;29;20466;-72
2023/03/29 10:25:03;;;;;;;20.20;10.95;;;;;;;;;;4887267;29;20037;-74
2023/03/29 10:27:30;;;;;;;22.33;10.93;;;;;;;;;;4889071;29;20521;-75
2023/03/29 10:29:58;;;;;;;42.33;19.65;;;;;;;;;;4906672;29;20479;-75
2023/03/29 10:32:33;;;;;;;21.75;12.48;;;;;;;;;;4914493;29;20042;-72
2023/03/29 10:35:18;;;;;;;15.73;10.60;;;;;;;;;;4897735;29;20040;-75
2023/03/29 10:37:45;;;;;;;26.00;12.48;;;;;;;;;;4887446;29;20439;-73
2023/03/29 10:40:26;;;;;;;23.48;13.65;;;;;;;;;;4886370;29;20048;-76
2023/03/29 10:42:58;;;;;;;25.02;12.90;;;;;;;;;;4886466;29;20111;-75
2023/03/29 10:45:26;;;;;;;24.50;12.52;;;;;;;;;;4878879;29;20068;-73
2023/03/29 10:47:55;;;;;;;18.35;11.80;;;;;;;;;;4892643;29;20093;-75
2023/03/29 10:50:21;;;;;;;20.17;11.43;;;;;;;;;;4885789;29;20466;-74
2023/03/29 10:52:49;;;;;;;21.73;12.18;;;;;;;;;;4911352;29;20532;-74
2023/03/29 10:55:15;;;;;;;18.45;11.32;;;;;;;;;;4887246;29;20040;-74
2023/03/29 10:57:51;;;;;;;20.60;11.30;;;;;;;;;;4901277;29;20051;-74
2023/03/29 11:00:19;;;;;;;18.40;13.05;;;;;;;;;;4879587;29;20060;-73
2023/03/29 11:02:55;;;;;;;22.42;11.25;;;;;;;;;;4881969;29;21132;-75
2023/03/29 11:05:30;;;;;;;20.23;11.45;;;;;;;;;;4885281;29;20500;-75
2023/03/29 11:08:08;;;;;;;15.93;12.05;;;;;;;;;;4894770;29;20060;-74
2023/03/29 11:10:52;;;;;;;19.33;11.43;;;;;;;;;;4915295;29;20044;-73
2023/03/29 11:13:22;;;;;;;16.35;11.32;;;;;;;;;;4911207;29;20355;-74
2023/03/29 11:15:51;;;;;;;21.27;11.98;;;;;;;;;;4886986;29;20115;-74
2023/03/29 11:18:21;;;;;;;19.02;12.88;;;;;;;;;;4889230;29;20036;-74
2023/03/29 11:20:50;;;;;;;22.83;13.00;;;;;;;;;;4889412;29;20029;-73
2023/03/29 11:23:28;;;;;;;21.23;12.32;;;;;;;;;;4897785;29;20059;-73
2023/03/29 11:25:57;;;;;;;20.65;12.10;;;;;;;;;;4917340;29;20402;-74
2023/03/29 11:28:30;;;;;;;18.90;11.77;;;;;;;;;;4895834;29;20418;-74
2023/03/29 11:30:56;;;;;;;16.85;12.40;;;;;;;;;;4902300;29;20124;-75
2023/03/29 11:33:26;;;;;;;21.15;12.00;;;;;;;;;;4894279;29;20037;-74
2023/03/29 11:35:52;;;;;;;19.65;12.23;;;;;;;;;;4900630;29;20039;-76
2023/03/29 11:38:33;;;;;;;21.25;12.95;;;;;;;;;;4896243;29;20032;-76
2023/03/29 11:41:18;;;;;;;21.30;12.25;;;;;;;;;;4898399;29;20036;-76
2023/03/29 11:43:51;;;;;;;23.90;12.82;;;;;;;;;;4909259;29;20696;-77
2023/03/29 11:46:20;;;;;;;21.95;12.57;;;;;;;;;;4896858;29;20033;-76
2023/03/29 11:48:46;;;;;;;20.60;12.70;;;;;;;;;;4893198;29;20398;-76
2023/03/29 11:51:15;;;;;;;18.63;12.07;;;;;;;;;;4910233;29;20021;-77
2023/03/29 11:53:55;;;;;;;22.60;12.88;;;;;;;;;;4878135;29;20051;-76
2023/03/29 11:56:30;;;;;;;15.27;11.80;;;;;;;;;;4911655;29;20486;-76
2023/03/29 11:59:03;;;;;;;20.40;13.40;;;;;;;;;;4886982;29;20384;-78
2023/03/29 12:01:56;;;;;;;18.35;11.88;;;;;;;;;;4887157;29;20021;-76
2023/03/29 12:04:35;;;;;;;17.73;13.13;;;;;;;;;;4878850;29;20478;-74
2023/03/29 12:07:21;;;;;;;18.67;12.57;;;;;;;;;;4887277;29;20020;-79
2023/03/29 12:09:53;;;;;;;21.65;12.70;;;;;;;;;;4909231;29;20634;-80
2023/03/29 12:12:26;;;;;;;15.88;10.93;;;;;;;;;;4886976;29;20470;-77
2023/03/29 12:15:02;;;;;;;17.75;12.02;;;;;;;;;;4917897;29;20122;-78
2023/03/29 12:17:47;;;;;;;18.85;12.43;;;;;;;;;;4909953;29;20043;-77
2023/03/29 12:20:27;;;;;;;19.08;12.05;;;;;;;;;;4902756;29;20052;-78
2023/03/29 12:22:53;;;;;;;15.27;11.48;;;;;;;;;;4903221;29;20029;-77
2023/03/29 12:25:34;;;;;;;19.30;12.07;;;;;;;;;;4909291;29;20553;-74
2023/03/29 12:28:03;;;;;;;17.05;11.68;;;;;;;;;;4885781;29;20051;-78
2023/03/29 12:30:30;;;;;;;15.27;10.55;;;;;;;;;;4885717;29;20481;-72
2023/03/29 12:33:15;;;;;;;14.38;11.30;;;;;;;;;;4912803;29;20029;-75
2023/03/29 12:35:57;;;;;;;16.40;10.68;;;;;;;;;;4886805;29;20435;-77
2023/03/29 12:38:25;;;;;;;13.65;10.13;;;;;;;;;;4923314;29;20027;-76
2023/03/29 12:40:56;;;;;;;14.40;10.07;;;;;;;;;;4908866;29;20115;-77
2023/03/29 12:43:22;;;;;;;15.98;10.57;;;;;;;;;;4905826;29;20423;-76
2023/03/29 12:45:51;;;;;;;14.10;10.40;;;;;;;;;;4907809;29;20457;-75
2023/03/29 12:48:23;;;;;;;18.20;10.45;;;;;;;;;;4896341;29;20073;-75
2023/03/29 12:51:01;;;;;;;16.02;10.50;;;;;;;;;;4893432;29;20025;-75
2023/03/29 12:53:32;;;;;;;17.55;10.00;;;;;;;;;;4911993;29;20093;-74
2023/03/29 12:56:02;;;;;;;15.25;11.10;;;;;;;;;;4878991;29;20374;-73
2023/03/29 12:58:38;;;;;;;20.52;10.73;;;;;;;;;;4911680;29;20427;-77
2023/03/29 13:01:23;;;;;;;18.48;10.82;;;;;;;;;;4893207;29;20024;-74
2023/03/29 13:03:50;;;;;;;15.88;11.02;;;;;;;;;;4899534;29;20115;-74
2023/03/29 13:06:32;;;;;;;18.13;10.55;;;;;;;;;;4911713;29;20032;-74
2023/03/29 13:09:17;;;;;;;18.37;10.60;;;;;;;;;;4906178;29;20020;-77
2023/03/29 13:11:43;;;;;;;19.00;10.32;;;;;;;;;;4908718;29;20098;-75
2023/03/29 13:14:15;;;;;;;14.63;9.82;;;;;;;;;;4878614;29;20044;-74
2023/03/29 13:16:42;;;;;;;16.13;10.10;;;;;;;;;;4896013;29;20111;-74
2023/03/29 13:19:34;;;;;;;15.30;11.13;;;14.60;99.90;;;;;;4909460;29;20488;-74
2023/03/29 13:22:09;;;;;;;17.15;10.02;;;;;;;;;;4894107;29;20638;-74
2023/03/29 13:24:54;;;;;;;13.95;9.90;;;;;;;;;;4908940;29;20199;-73
2023/03/29 13:27:24;;;;;;;14.13;10.27;;;;;;;;;;4902908;29;20053;-73
2023/03/29 13:29:58;;;;;;;25.15;15.20;;;;;;;;;;4911298;29;20024;-73
2023/03/29 13:32:25;;;;;;;16.55;10.68;;;;;;;;;;4889868;29;20033;-73
2023/03/29 13:34:57;;;;;;;17.38;11.00;;;;;;;;;;4894178;29;20370;-73
2023/03/29 13:37:45;;;;;;;16.65;11.20;;;14.50;99.90;;;;;;4909602;29;20521;-73
2023/03/29 13:40:30;;;;;;;19.17;11.40;;;;;;;;;;4910892;29;20036;-74
2023/03/29 13:42:57;;;;;;;17.48;11.80;;;;;;;;;;4884141;29;20112;-77
2023/03/29 13:45:28;;;;;;;18.27;13.02;;;;;;;;;;4906075;29;20035;-75
2023/03/29 13:48:02;;;;;;;15.10;10.15;;;;;;;;;;4892823;29;20016;-74
2023/03/29 13:50:36;;;;;;;18.05;10.82;;;;;;;;;;4906374;29;20021;-73
2023/03/29 13:53:26;;;;;;;14.73;9.85;;;;;;;;;;4883226;29;20123;-74
2023/03/29 13:55:53;;;;;;;18.05;9.75;;;;;;;;;;4893381;29;20072;-74
2023/03/29 13:58:28;;;;;;;14.88;9.57;;;;;;;;;;4894280;29;20438;-74
2023/03/29 14:01:16;;;;;;;16.20;10.95;;;;;;;;;;4894988;29;20025;-74
2023/03/29 14:03:48;;;;;;;14.60;9.82;;;;;;;;;;4907343;29;20498;-74
2023/03/29 14:06:16;;;;;;;13.40;10.00;;;;;;;;;;4895700;29;20032;-74
2023/03/29 14:08:43;;;;;;;14.35;10.18;;;;;;;;;;4909210;29;20032;-74
2023/03/29 14:11:21;;;;;;;14.57;10.75;;;;;;;;;;4893913;29;20028;-74
2023/03/29 14:13:48;;;;;;;15.73;10.90;;;;;;;;;;4909258;29;20070;-74
2023/03/29 14:16:14;;;;;;;17.63;10.88;;;;;;;;;;4894400;29;20029;-74
2023/03/29 14:18:41;;;;;;;12.68;9.23;;;;;;;;;;4915629;29;20462;-73
2023/03/29 14:21:07;;;;;;;13.95;9.57;;;;;;;;;;4892323;29;20115;-74
2023/03/29 14:23:36;;;;;;;13.50;9.80;;;;;;;;;;4901951;29;20116;-76
2023/03/29 14:26:09;;;;;;;15.85;10.13;;;;;;;;;;4894033;29;20051;-74
2023/03/29 14:28:36;;;;;;;13.30;8.93;;;;;;;;;;4899605;29;20127;-72
2023/03/29 14:31:02;;;;;;;13.93;8.70;;;;;;;;;;4892291;29;20506;-73
2023/03/29 14:33:33;;;;;;;14.05;8.85;;;;;;;;;;4894227;29;20060;-77
2023/03/29 14:36:02;;;;;;;11.70;9.27;;;;;;;;;;4910144;29;20027;-74
2023/03/29 14:38:28;;;;;;;14.13;8.70;;;;;;;;;;4893898;29;20832;-72
2023/03/29 14:40:58;;;;;;;12.30;7.53;;;;;;;;;;4889014;29;20029;-72
2023/03/29 14:43:28;;;;;;;10.85;9.20;;;;;;;;;;4907912;29;20032;-76
2023/03/29 14:45:55;;;;;;;14.43;7.47;;;;;;;;;;4909290;29;20036;-75